sensor_id;sensor_type;location;lat;lon;timestamp;temperature;humidity
827;DHT22;395;48.132;11.608;2022-12-28T00:01:17;6.30;1.00
827;DHT22;395;48.132;11.608;2022-12-28T00:03:44;6.40;1.00
827;DHT22;395;48.132;11.608;2022-12-28T00:06:10;6.40;1.00
827;DHT22;395;48.132;11.608;2022-12-28T00:08:36;6.40;1.00
827;DHT22;395;48.132;11.608;2022-12-28T00:11:15;6.30;1.00
827;DHT22;395;48.132;11.608;2022-12-28T00:13:41;6.40;1.00
827;DHT22;395;48.132;11.608;2022-12-28T00:16:23;6.30;1.00
827;DHT22;395;48.132;11.608;2022-12-28T00:18:50;6.30;1.00
827;DHT22;395;48.132;11.608;2022-12-28T00:21:15;6.20;1.00
827;DHT22;395;48.132;11.608;2022-12-28T00:23:41;6.30;1.00
827;DHT22;395;48.132;11.608;2022-12-28T00:26:12;6.30;1.00
827;DHT22;395;48.132;11.608;2022-12-28T00:28:38;6.30;1.00
827;DHT22;395;48.132;11.608;2022-12-28T00:31:04;6.30;1.00
827;DHT22;395;48.132;11.608;2022-12-28T00:33:30;6.30;1.00
827;DHT22;395;48.132;11.608;2022-12-28T00:35:58;6.30;1.00
827;DHT22;395;48.132;11.608;2022-12-28T00:38:24;6.30;1.00
827;DHT22;395;48.132;11.608;2022-12-28T00:40:50;6.30;1.00
827;DHT22;395;48.132;11.608;2022-12-28T00:43:16;6.30;1.00
827;DHT22;395;48.132;11.608;2022-12-28T00:45:46;6.30;1.00
827;DHT22;395;48.132;11.608;2022-12-28T00:48:12;6.30;1.00
827;DHT22;395;48.132;11.608;2022-12-28T00:50:38;6.30;1.00
827;DHT22;395;48.132;11.608;2022-12-28T00:53:04;6.30;1.00
827;DHT22;395;48.132;11.608;2022-12-28T00:55:31;6.30;1.00
827;DHT22;395;48.132;11.608;2022-12-28T00:58:00;6.30;1.00
827;DHT22;395;48.132;11.608;2022-12-28T01:00:27;6.30;1.00
827;DHT22;395;48.132;11.608;2022-12-28T01:02:52;6.30;1.00
827;DHT22;395;48.132;11.608;2022-12-28T01:05:19;6.30;1.00
827;DHT22;395;48.132;11.608;2022-12-28T01:07:45;6.20;1.00
827;DHT22;395;48.132;11.608;2022-12-28T01:10:11;6.20;1.00
827;DHT22;395;48.132;11.608;2022-12-28T01:12:36;6.20;1.00
827;DHT22;395;48.132;11.608;2022-12-28T01:15:04;6.20;1.00
827;DHT22;395;48.132;11.608;2022-12-28T01:17:30;6.20;1.00
827;DHT22;395;48.132;11.608;2022-12-28T01:19:56;6.20;1.00
827;DHT22;395;48.132;11.608;2022-12-28T01:22:22;6.20;1.00
827;DHT22;395;48.132;11.608;2022-12-28T01:24:47;6.30;1.00
827;DHT22;395;48.132;11.608;2022-12-28T01:27:13;6.20;1.00
827;DHT22;395;48.132;11.608;2022-12-28T01:29:39;6.20;1.00
827;DHT22;395;48.132;11.608;2022-12-28T01:32:05;6.20;1.00
827;DHT22;395;48.132;11.608;2022-12-28T01:34:30;6.20;1.00
827;DHT22;395;48.132;11.608;2022-12-28T01:36:56;6.20;1.00
827;DHT22;395;48.132;11.608;2022-12-28T01:39:21;6.20;1.00
827;DHT22;395;48.132;11.608;2022-12-28T01:41:47;6.20;1.00
827;DHT22;395;48.132;11.608;2022-12-28T01:46:40;6.20;1.00
827;DHT22;395;48.132;11.608;2022-12-28T01:49:12;5.70;1.00
827;DHT22;395;48.132;11.608;2022-12-28T01:54:28;6.20;1.00
827;DHT22;395;48.132;11.608;2022-12-28T01:56:55;6.20;1.00
827;DHT22;395;48.132;11.608;2022-12-28T01:59:24;6.20;1.10
827;DHT22;395;48.132;11.608;2022-12-28T02:01:50;6.20;1.10
827;DHT22;395;48.132;11.608;2022-12-28T02:04:16;6.20;1.30
827;DHT22;395;48.132;11.608;2022-12-28T02:06:45;6.30;1.30
827;DHT22;395;48.132;11.608;2022-12-28T02:09:19;6.30;1.80
827;DHT22;395;48.132;11.608;2022-12-28T02:11:47;6.30;1.80
827;DHT22;395;48.132;11.608;2022-12-28T02:14:14;6.40;1.40
827;DHT22;395;48.132;11.608;2022-12-28T02:16:40;6.30;1.10
827;DHT22;395;48.132;11.608;2022-12-28T02:19:08;6.30;1.00
827;DHT22;395;48.132;11.608;2022-12-28T02:30:02;6.40;1.10
827;DHT22;395;48.132;11.608;2022-12-28T02:35:53;6.40;1.00
827;DHT22;395;48.132;11.608;2022-12-28T02:38:30;6.30;1.00
827;DHT22;395;48.132;11.608;2022-12-28T02:41:07;6.30;1.00
827;DHT22;395;48.132;11.608;2022-12-28T02:43:34;6.30;1.00
827;DHT22;395;48.132;11.608;2022-12-28T02:46:17;6.30;1.00
827;DHT22;395;48.132;11.608;2022-12-28T02:49:22;6.30;1.00
827;DHT22;395;48.132;11.608;2022-12-28T02:52:16;6.30;1.00
827;DHT22;395;48.132;11.608;2022-12-28T03:03:31;6.30;1.00
827;DHT22;395;48.132;11.608;2022-12-28T03:06:39;6.30;1.00
827;DHT22;395;48.132;11.608;2022-12-28T03:09:49;6.30;1.00
827;DHT22;395;48.132;11.608;2022-12-28T03:12:24;6.30;1.00
827;DHT22;395;48.132;11.608;2022-12-28T03:17:29;6.30;1.00
827;DHT22;395;48.132;11.608;2022-12-28T03:20:29;6.30;1.00
827;DHT22;395;48.132;11.608;2022-12-28T03:23:17;6.30;1.30
827;DHT22;395;48.132;11.608;2022-12-28T03:26:06;6.30;1.40
827;DHT22;395;48.132;11.608;2022-12-28T03:28:52;6.40;1.30
827;DHT22;395;48.132;11.608;2022-12-28T03:31:38;6.40;1.10
827;DHT22;395;48.132;11.608;2022-12-28T03:34:04;6.40;1.00
827;DHT22;395;48.132;11.608;2022-12-28T03:39:22;6.40;1.00
827;DHT22;395;48.132;11.608;2022-12-28T03:47:46;6.40;1.00
827;DHT22;395;48.132;11.608;2022-12-28T03:50:14;6.40;1.00
827;DHT22;395;48.132;11.608;2022-12-28T03:52:40;6.40;1.00
827;DHT22;395;48.132;11.608;2022-12-28T03:55:06;6.40;1.00
827;DHT22;395;48.132;11.608;2022-12-28T03:57:32;6.40;1.00
827;DHT22;395;48.132;11.608;2022-12-28T03:59:57;6.40;1.00
827;DHT22;395;48.132;11.608;2022-12-28T04:02:23;6.40;1.00
827;DHT22;395;48.132;11.608;2022-12-28T04:04:48;6.40;1.00
827;DHT22;395;48.132;11.608;2022-12-28T04:07:14;6.40;1.00
827;DHT22;395;48.132;11.608;2022-12-28T04:09:40;6.40;1.00
827;DHT22;395;48.132;11.608;2022-12-28T04:12:05;6.40;1.00
827;DHT22;395;48.132;11.608;2022-12-28T04:14:31;6.50;1.00
827;DHT22;395;48.132;11.608;2022-12-28T04:16:57;6.50;1.00
827;DHT22;395;48.132;11.608;2022-12-28T04:19:22;6.50;1.00
827;DHT22;395;48.132;11.608;2022-12-28T04:21:48;6.50;1.00
827;DHT22;395;48.132;11.608;2022-12-28T04:24:14;6.50;1.00
827;DHT22;395;48.132;11.608;2022-12-28T04:26:39;6.50;1.00
827;DHT22;395;48.132;11.608;2022-12-28T04:29:05;6.50;1.00
827;DHT22;395;48.132;11.608;2022-12-28T04:31:31;6.60;1.00
827;DHT22;395;48.132;11.608;2022-12-28T04:33:57;6.70;1.00
827;DHT22;395;48.132;11.608;2022-12-28T04:36:23;6.60;1.00
827;DHT22;395;48.132;11.608;2022-12-28T04:38:49;6.50;1.00
827;DHT22;395;48.132;11.608;2022-12-28T04:41:15;6.50;1.00
827;DHT22;395;48.132;11.608;2022-12-28T04:43:40;6.60;1.00
827;DHT22;395;48.132;11.608;2022-12-28T04:46:10;6.60;1.00
827;DHT22;395;48.132;11.608;2022-12-28T04:48:36;6.60;1.00
827;DHT22;395;48.132;11.608;2022-12-28T04:51:09;6.50;1.00
827;DHT22;395;48.132;11.608;2022-12-28T04:53:37;6.60;1.00
827;DHT22;395;48.132;11.608;2022-12-28T04:56:04;6.60;1.00
827;DHT22;395;48.132;11.608;2022-12-28T04:58:30;6.60;1.00
827;DHT22;395;48.132;11.608;2022-12-28T05:01:08;6.60;1.00
827;DHT22;395;48.132;11.608;2022-12-28T05:03:35;6.60;1.00
827;DHT22;395;48.132;11.608;2022-12-28T05:06:03;6.60;1.00
827;DHT22;395;48.132;11.608;2022-12-28T05:08:34;6.60;1.00
827;DHT22;395;48.132;11.608;2022-12-28T05:11:05;6.60;1.00
827;DHT22;395;48.132;11.608;2022-12-28T05:13:31;6.60;1.00
827;DHT22;395;48.132;11.608;2022-12-28T05:16:04;6.60;1.00
827;DHT22;395;48.132;11.608;2022-12-28T05:18:31;6.60;1.00
827;DHT22;395;48.132;11.608;2022-12-28T05:21:02;6.60;1.00
827;DHT22;395;48.132;11.608;2022-12-28T05:23:29;6.60;1.00
827;DHT22;395;48.132;11.608;2022-12-28T05:25:55;6.60;1.00
827;DHT22;395;48.132;11.608;2022-12-28T05:28:21;6.60;1.00
827;DHT22;395;48.132;11.608;2022-12-28T05:30:47;6.70;1.00
827;DHT22;395;48.132;11.608;2022-12-28T05:33:13;6.70;1.00
827;DHT22;395;48.132;11.608;2022-12-28T05:35:39;6.70;1.00
827;DHT22;395;48.132;11.608;2022-12-28T05:38:04;6.70;1.00
827;DHT22;395;48.132;11.608;2022-12-28T05:40:30;6.80;1.00
827;DHT22;395;48.132;11.608;2022-12-28T05:42:56;6.80;1.00
827;DHT22;395;48.132;11.608;2022-12-28T05:45:21;6.80;1.00
827;DHT22;395;48.132;11.608;2022-12-28T05:47:47;6.80;1.00
827;DHT22;395;48.132;11.608;2022-12-28T05:50:13;6.80;1.00
827;DHT22;395;48.132;11.608;2022-12-28T05:52:38;6.80;1.00
827;DHT22;395;48.132;11.608;2022-12-28T05:55:04;6.90;1.00
827;DHT22;395;48.132;11.608;2022-12-28T05:57:30;6.90;1.00
827;DHT22;395;48.132;11.608;2022-12-28T05:59:56;6.80;1.00
827;DHT22;395;48.132;11.608;2022-12-28T06:02:22;6.90;1.00
827;DHT22;395;48.132;11.608;2022-12-28T06:04:52;6.90;1.00
827;DHT22;395;48.132;11.608;2022-12-28T06:07:18;7.00;1.00
827;DHT22;395;48.132;11.608;2022-12-28T06:09:44;6.90;1.00
827;DHT22;395;48.132;11.608;2022-12-28T06:12:10;7.00;1.00
827;DHT22;395;48.132;11.608;2022-12-28T06:14:35;7.00;1.00
827;DHT22;395;48.132;11.608;2022-12-28T06:17:01;7.10;1.00
827;DHT22;395;48.132;11.608;2022-12-28T06:19:27;7.00;1.00
827;DHT22;395;48.132;11.608;2022-12-28T06:21:52;7.00;1.00
827;DHT22;395;48.132;11.608;2022-12-28T06:24:18;7.10;1.00
827;DHT22;395;48.132;11.608;2022-12-28T06:26:44;7.10;1.00
827;DHT22;395;48.132;11.608;2022-12-28T06:29:10;7.10;1.00
827;DHT22;395;48.132;11.608;2022-12-28T06:31:38;7.10;1.00
827;DHT22;395;48.132;11.608;2022-12-28T06:34:06;7.10;1.00
827;DHT22;395;48.132;11.608;2022-12-28T06:36:43;7.10;1.00
827;DHT22;395;48.132;11.608;2022-12-28T06:39:10;7.10;1.00
827;DHT22;395;48.132;11.608;2022-12-28T06:41:37;7.00;1.00
827;DHT22;395;48.132;11.608;2022-12-28T06:44:07;7.10;1.00
827;DHT22;395;48.132;11.608;2022-12-28T06:46:34;7.10;1.00
827;DHT22;395;48.132;11.608;2022-12-28T06:48:59;7.10;1.00
827;DHT22;395;48.132;11.608;2022-12-28T06:51:27;7.10;1.00
827;DHT22;395;48.132;11.608;2022-12-28T06:53:54;7.10;1.00
827;DHT22;395;48.132;11.608;2022-12-28T06:58:48;7.10;1.00
827;DHT22;395;48.132;11.608;2022-12-28T07:03:43;7.10;1.00
827;DHT22;395;48.132;11.608;2022-12-28T07:06:10;7.20;1.00
827;DHT22;395;48.132;11.608;2022-12-28T07:08:36;7.20;1.00
827;DHT22;395;48.132;11.608;2022-12-28T07:11:20;7.20;1.00
827;DHT22;395;48.132;11.608;2022-12-28T07:13:46;7.20;1.00
827;DHT22;395;48.132;11.608;2022-12-28T07:16:18;7.20;1.00
827;DHT22;395;48.132;11.608;2022-12-28T07:18:44;7.20;1.00
827;DHT22;395;48.132;11.608;2022-12-28T07:21:12;7.20;1.00
827;DHT22;395;48.132;11.608;2022-12-28T07:23:38;7.20;1.00
827;DHT22;395;48.132;11.608;2022-12-28T07:26:09;7.30;1.00
827;DHT22;395;48.132;11.608;2022-12-28T07:28:39;7.30;1.00
827;DHT22;395;48.132;11.608;2022-12-28T07:31:07;7.30;1.00
827;DHT22;395;48.132;11.608;2022-12-28T07:33:35;7.30;1.00
827;DHT22;395;48.132;11.608;2022-12-28T07:36:05;7.30;1.00
827;DHT22;395;48.132;11.608;2022-12-28T07:38:34;7.30;1.00
827;DHT22;395;48.132;11.608;2022-12-28T07:41:09;7.30;1.00
827;DHT22;395;48.132;11.608;2022-12-28T07:43:35;7.30;1.00
827;DHT22;395;48.132;11.608;2022-12-28T07:46:10;7.30;1.00
827;DHT22;395;48.132;11.608;2022-12-28T07:48:36;7.30;1.00
827;DHT22;395;48.132;11.608;2022-12-28T07:53:40;7.30;1.00
827;DHT22;395;48.132;11.608;2022-12-28T07:56:07;7.40;1.00
827;DHT22;395;48.132;11.608;2022-12-28T07:58:33;7.40;1.00
827;DHT22;395;48.132;11.608;2022-12-28T08:01:12;7.40;1.00
827;DHT22;395;48.132;11.608;2022-12-28T08:03:40;7.40;1.00
827;DHT22;395;48.132;11.608;2022-12-28T08:06:17;7.50;1.00
827;DHT22;395;48.132;11.608;2022-12-28T08:08:45;7.50;1.00
827;DHT22;395;48.132;11.608;2022-12-28T08:11:14;7.50;1.00
827;DHT22;395;48.132;11.608;2022-12-28T08:13:42;7.50;1.00
827;DHT22;395;48.132;11.608;2022-12-28T08:16:13;7.50;1.00
827;DHT22;395;48.132;11.608;2022-12-28T08:18:39;7.50;1.00
827;DHT22;395;48.132;11.608;2022-12-28T08:21:10;7.60;1.00
827;DHT22;395;48.132;11.608;2022-12-28T08:23:37;7.60;1.00
827;DHT22;395;48.132;11.608;2022-12-28T08:26:23;7.60;1.00
827;DHT22;395;48.132;11.608;2022-12-28T08:28:52;7.70;1.00
827;DHT22;395;48.132;11.608;2022-12-28T08:31:23;7.70;1.00
827;DHT22;395;48.132;11.608;2022-12-28T08:33:49;7.70;1.00
827;DHT22;395;48.132;11.608;2022-12-28T08:36:15;7.80;1.00
827;DHT22;395;48.132;11.608;2022-12-28T08:38:42;7.80;1.00
827;DHT22;395;48.132;11.608;2022-12-28T08:41:12;7.80;1.00
827;DHT22;395;48.132;11.608;2022-12-28T08:43:38;7.90;1.00
827;DHT22;395;48.132;11.608;2022-12-28T08:46:12;7.90;1.00
827;DHT22;395;48.132;11.608;2022-12-28T08:48:38;7.90;1.00
827;DHT22;395;48.132;11.608;2022-12-28T08:51:06;7.90;1.00
827;DHT22;395;48.132;11.608;2022-12-28T08:53:34;8.00;1.00
827;DHT22;395;48.132;11.608;2022-12-28T08:56:12;8.00;1.00
827;DHT22;395;48.132;11.608;2022-12-28T08:58:40;8.00;1.00
827;DHT22;395;48.132;11.608;2022-12-28T09:03:36;8.10;1.00
827;DHT22;395;48.132;11.608;2022-12-28T09:06:06;8.10;1.00
827;DHT22;395;48.132;11.608;2022-12-28T09:08:32;8.10;1.00
827;DHT22;395;48.132;11.608;2022-12-28T09:10:59;8.10;1.00
827;DHT22;395;48.132;11.608;2022-12-28T09:13:25;8.10;1.00
827;DHT22;395;48.132;11.608;2022-12-28T09:15:59;8.20;1.00
827;DHT22;395;48.132;11.608;2022-12-28T09:18:25;8.10;1.00
827;DHT22;395;48.132;11.608;2022-12-28T09:20:51;8.20;1.00
827;DHT22;395;48.132;11.608;2022-12-28T09:23:17;8.20;1.00
827;DHT22;395;48.132;11.608;2022-12-28T09:25:43;8.20;1.00
827;DHT22;395;48.132;11.608;2022-12-28T09:28:08;8.20;1.00
827;DHT22;395;48.132;11.608;2022-12-28T09:30:34;8.20;1.00
827;DHT22;395;48.132;11.608;2022-12-28T09:33:00;8.30;1.00
827;DHT22;395;48.132;11.608;2022-12-28T09:35:44;8.30;1.00
827;DHT22;395;48.132;11.608;2022-12-28T09:38:10;8.30;1.00
827;DHT22;395;48.132;11.608;2022-12-28T09:40:36;8.30;1.00
827;DHT22;395;48.132;11.608;2022-12-28T09:43:03;8.30;1.00
827;DHT22;395;48.132;11.608;2022-12-28T09:45:30;8.40;1.00
827;DHT22;395;48.132;11.608;2022-12-28T09:48:18;8.30;1.00
827;DHT22;395;48.132;11.608;2022-12-28T09:50:46;8.30;1.00
827;DHT22;395;48.132;11.608;2022-12-28T09:53:31;8.30;1.00
827;DHT22;395;48.132;11.608;2022-12-28T09:56:36;8.30;1.00
827;DHT22;395;48.132;11.608;2022-12-28T09:59:05;8.30;1.00
827;DHT22;395;48.132;11.608;2022-12-28T10:01:35;8.30;1.00
827;DHT22;395;48.132;11.608;2022-12-28T10:04:03;8.40;1.00
827;DHT22;395;48.132;11.608;2022-12-28T10:06:31;8.30;1.00
827;DHT22;395;48.132;11.608;2022-12-28T10:09:00;8.30;1.00
827;DHT22;395;48.132;11.608;2022-12-28T10:13:58;8.40;1.00
827;DHT22;395;48.132;11.608;2022-12-28T10:16:27;8.40;1.00
827;DHT22;395;48.132;11.608;2022-12-28T10:18:53;8.40;1.00
827;DHT22;395;48.132;11.608;2022-12-28T10:21:21;8.60;1.00
827;DHT22;395;48.132;11.608;2022-12-28T10:23:51;8.40;1.00
827;DHT22;395;48.132;11.608;2022-12-28T10:26:18;8.50;1.00
827;DHT22;395;48.132;11.608;2022-12-28T10:28:52;8.50;1.00
827;DHT22;395;48.132;11.608;2022-12-28T10:31:35;8.50;1.00
827;DHT22;395;48.132;11.608;2022-12-28T10:34:10;8.50;1.00
827;DHT22;395;48.132;11.608;2022-12-28T10:36:38;8.50;1.00
827;DHT22;395;48.132;11.608;2022-12-28T10:39:04;8.40;1.00
827;DHT22;395;48.132;11.608;2022-12-28T10:41:37;8.60;1.00
827;DHT22;395;48.132;11.608;2022-12-28T10:44:26;8.60;1.00
827;DHT22;395;48.132;11.608;2022-12-28T10:47:16;8.60;1.00
827;DHT22;395;48.132;11.608;2022-12-28T10:49:49;8.60;1.00
827;DHT22;395;48.132;11.608;2022-12-28T10:54:41;8.60;1.00
827;DHT22;395;48.132;11.608;2022-12-28T10:57:16;8.60;1.00
827;DHT22;395;48.132;11.608;2022-12-28T10:59:42;8.60;1.00
827;DHT22;395;48.132;11.608;2022-12-28T11:02:29;8.60;1.00
827;DHT22;395;48.132;11.608;2022-12-28T11:04:57;8.60;1.00
827;DHT22;395;48.132;11.608;2022-12-28T11:10:26;8.60;1.00
827;DHT22;395;48.132;11.608;2022-12-28T11:12:57;8.80;1.00
827;DHT22;395;48.132;11.608;2022-12-28T11:15:29;8.60;1.00
827;DHT22;395;48.132;11.608;2022-12-28T11:18:00;8.60;1.00
827;DHT22;395;48.132;11.608;2022-12-28T11:20:35;8.70;1.00
827;DHT22;395;48.132;11.608;2022-12-28T11:23:06;8.70;1.00
827;DHT22;395;48.132;11.608;2022-12-28T11:25:34;8.70;1.00
827;DHT22;395;48.132;11.608;2022-12-28T11:28:11;8.70;1.00
827;DHT22;395;48.132;11.608;2022-12-28T11:30:38;8.70;1.00
827;DHT22;395;48.132;11.608;2022-12-28T11:33:03;8.70;1.00
827;DHT22;395;48.132;11.608;2022-12-28T11:35:37;8.70;1.00
827;DHT22;395;48.132;11.608;2022-12-28T11:38:06;8.70;1.00
827;DHT22;395;48.132;11.608;2022-12-28T11:40:44;8.70;1.00
827;DHT22;395;48.132;11.608;2022-12-28T11:43:35;8.70;1.00
827;DHT22;395;48.132;11.608;2022-12-28T11:51:26;8.70;1.00
827;DHT22;395;48.132;11.608;2022-12-28T11:56:58;8.70;1.00
827;DHT22;395;48.132;11.608;2022-12-28T11:59:31;8.70;1.00
827;DHT22;395;48.132;11.608;2022-12-28T12:04:39;8.70;1.00
827;DHT22;395;48.132;11.608;2022-12-28T12:07:07;8.70;1.00
827;DHT22;395;48.132;11.608;2022-12-28T12:09:42;8.70;1.00
827;DHT22;395;48.132;11.608;2022-12-28T12:14:51;8.70;1.00
827;DHT22;395;48.132;11.608;2022-12-28T12:17:31;8.70;1.00
827;DHT22;395;48.132;11.608;2022-12-28T12:20:02;8.80;1.00
827;DHT22;395;48.132;11.608;2022-12-28T12:22:33;8.80;1.00
827;DHT22;395;48.132;11.608;2022-12-28T12:25:23;8.80;1.00
827;DHT22;395;48.132;11.608;2022-12-28T12:27:57;8.80;1.00
827;DHT22;395;48.132;11.608;2022-12-28T12:30:23;8.80;1.00
827;DHT22;395;48.132;11.608;2022-12-28T12:33:26;8.80;1.00
827;DHT22;395;48.132;11.608;2022-12-28T12:41:35;8.80;1.00
827;DHT22;395;48.132;11.608;2022-12-28T12:49:54;8.80;1.00
827;DHT22;395;48.132;11.608;2022-12-28T12:58:28;8.90;1.00
827;DHT22;395;48.132;11.608;2022-12-28T13:03:46;8.90;1.00
827;DHT22;395;48.132;11.608;2022-12-28T13:06:16;8.90;1.00
827;DHT22;395;48.132;11.608;2022-12-28T13:08:52;8.90;1.00
827;DHT22;395;48.132;11.608;2022-12-28T13:11:20;8.90;1.00
827;DHT22;395;48.132;11.608;2022-12-28T13:13:49;9.00;1.00
827;DHT22;395;48.132;11.608;2022-12-28T13:16:23;9.00;1.00
827;DHT22;395;48.132;11.608;2022-12-28T13:19:01;9.00;1.00
827;DHT22;395;48.132;11.608;2022-12-28T13:21:29;9.10;1.00
827;DHT22;395;48.132;11.608;2022-12-28T13:24:15;9.10;1.00
827;DHT22;395;48.132;11.608;2022-12-28T13:26:41;9.10;1.00
827;DHT22;395;48.132;11.608;2022-12-28T13:29:08;9.10;1.00
827;DHT22;395;48.132;11.608;2022-12-28T13:31:38;9.10;1.00
827;DHT22;395;48.132;11.608;2022-12-28T13:34:26;9.00;1.00
827;DHT22;395;48.132;11.608;2022-12-28T13:36:59;9.10;1.00
827;DHT22;395;48.132;11.608;2022-12-28T13:39:31;9.20;1.00
827;DHT22;395;48.132;11.608;2022-12-28T13:42:18;9.20;1.00
827;DHT22;395;48.132;11.608;2022-12-28T13:44:58;9.20;1.00
827;DHT22;395;48.132;11.608;2022-12-28T13:47:32;9.20;1.00
827;DHT22;395;48.132;11.608;2022-12-28T13:50:16;9.30;1.00
827;DHT22;395;48.132;11.608;2022-12-28T13:52:56;9.30;1.00
827;DHT22;395;48.132;11.608;2022-12-28T13:55:30;9.30;1.00
827;DHT22;395;48.132;11.608;2022-12-28T13:58:02;9.40;1.00
827;DHT22;395;48.132;11.608;2022-12-28T14:00:29;9.30;1.00
827;DHT22;395;48.132;11.608;2022-12-28T14:02:57;9.30;1.00
827;DHT22;395;48.132;11.608;2022-12-28T14:05:27;9.30;1.00
827;DHT22;395;48.132;11.608;2022-12-28T14:07:54;9.30;1.00
827;DHT22;395;48.132;11.608;2022-12-28T14:10:21;9.30;1.00
827;DHT22;395;48.132;11.608;2022-12-28T14:12:48;9.30;1.00
827;DHT22;395;48.132;11.608;2022-12-28T14:15:15;9.30;1.00
827;DHT22;395;48.132;11.608;2022-12-28T14:17:42;9.40;1.00
827;DHT22;395;48.132;11.608;2022-12-28T14:20:10;9.40;1.00
827;DHT22;395;48.132;11.608;2022-12-28T14:22:37;9.40;1.00
827;DHT22;395;48.132;11.608;2022-12-28T14:25:15;9.40;1.00
827;DHT22;395;48.132;11.608;2022-12-28T14:27:44;9.40;1.00
827;DHT22;395;48.132;11.608;2022-12-28T14:30:40;9.40;1.00
827;DHT22;395;48.132;11.608;2022-12-28T14:33:18;9.50;1.00
827;DHT22;395;48.132;11.608;2022-12-28T14:35:50;9.30;1.00
827;DHT22;395;48.132;11.608;2022-12-28T14:38:19;9.50;1.00
827;DHT22;395;48.132;11.608;2022-12-28T14:40:52;9.50;1.00
827;DHT22;395;48.132;11.608;2022-12-28T14:43:23;9.50;1.00
827;DHT22;395;48.132;11.608;2022-12-28T14:45:49;9.50;1.00
827;DHT22;395;48.132;11.608;2022-12-28T14:48:39;9.50;1.00
827;DHT22;395;48.132;11.608;2022-12-28T14:53:42;9.60;1.00
827;DHT22;395;48.132;11.608;2022-12-28T14:56:14;9.60;1.00
827;DHT22;395;48.132;11.608;2022-12-28T14:58:45;9.60;1.00
827;DHT22;395;48.132;11.608;2022-12-28T15:01:13;9.60;1.00
827;DHT22;395;48.132;11.608;2022-12-28T15:03:56;9.60;1.00
827;DHT22;395;48.132;11.608;2022-12-28T15:06:26;9.60;1.00
827;DHT22;395;48.132;11.608;2022-12-28T15:08:53;9.60;1.00
827;DHT22;395;48.132;11.608;2022-12-28T15:11:21;9.60;1.00
827;DHT22;395;48.132;11.608;2022-12-28T15:13:48;9.60;1.00
827;DHT22;395;48.132;11.608;2022-12-28T15:16:16;9.60;1.00
827;DHT22;395;48.132;11.608;2022-12-28T15:18:42;9.60;1.00
827;DHT22;395;48.132;11.608;2022-12-28T15:21:21;9.60;1.00
827;DHT22;395;48.132;11.608;2022-12-28T15:23:48;9.60;1.00
827;DHT22;395;48.132;11.608;2022-12-28T15:26:14;9.60;1.00
827;DHT22;395;48.132;11.608;2022-12-28T15:28:40;9.50;1.00
827;DHT22;395;48.132;11.608;2022-12-28T15:31:08;9.50;1.00
827;DHT22;395;48.132;11.608;2022-12-28T15:33:35;9.50;1.00
827;DHT22;395;48.132;11.608;2022-12-28T15:36:06;9.50;1.00
827;DHT22;395;48.132;11.608;2022-12-28T15:38:32;9.50;1.00
827;DHT22;395;48.132;11.608;2022-12-28T15:40:58;9.50;1.00
827;DHT22;395;48.132;11.608;2022-12-28T15:43:23;9.50;1.00
827;DHT22;395;48.132;11.608;2022-12-28T15:45:57;9.50;1.00
827;DHT22;395;48.132;11.608;2022-12-28T15:48:23;9.50;1.00
827;DHT22;395;48.132;11.608;2022-12-28T15:50:49;9.50;1.00
827;DHT22;395;48.132;11.608;2022-12-28T15:53:17;9.50;1.00
827;DHT22;395;48.132;11.608;2022-12-28T15:55:43;9.50;1.00
827;DHT22;395;48.132;11.608;2022-12-28T15:58:09;9.50;1.00
827;DHT22;395;48.132;11.608;2022-12-28T16:00:35;9.40;1.00
827;DHT22;395;48.132;11.608;2022-12-28T16:03:00;9.40;1.00
827;DHT22;395;48.132;11.608;2022-12-28T16:05:26;9.40;1.00
827;DHT22;395;48.132;11.608;2022-12-28T16:07:52;9.40;1.00
827;DHT22;395;48.132;11.608;2022-12-28T16:10:17;9.40;1.00
827;DHT22;395;48.132;11.608;2022-12-28T16:12:44;9.40;1.00
827;DHT22;395;48.132;11.608;2022-12-28T16:15:10;9.30;1.00
827;DHT22;395;48.132;11.608;2022-12-28T16:17:36;9.30;1.00
827;DHT22;395;48.132;11.608;2022-12-28T16:20:02;9.30;1.00
827;DHT22;395;48.132;11.608;2022-12-28T16:22:29;9.30;1.00
827;DHT22;395;48.132;11.608;2022-12-28T16:24:55;9.30;1.00
827;DHT22;395;48.132;11.608;2022-12-28T16:27:20;9.30;1.00
827;DHT22;395;48.132;11.608;2022-12-28T16:29:46;9.20;1.00
827;DHT22;395;48.132;11.608;2022-12-28T16:32:13;9.20;1.00
827;DHT22;395;48.132;11.608;2022-12-28T16:34:39;9.20;1.00
827;DHT22;395;48.132;11.608;2022-12-28T16:37:04;9.20;1.00
827;DHT22;395;48.132;11.608;2022-12-28T16:39:30;9.20;1.00
827;DHT22;395;48.132;11.608;2022-12-28T16:41:56;9.10;1.00
827;DHT22;395;48.132;11.608;2022-12-28T16:44:24;9.10;1.00
827;DHT22;395;48.132;11.608;2022-12-28T16:46:52;9.10;1.00
827;DHT22;395;48.132;11.608;2022-12-28T16:49:19;9.10;1.00
827;DHT22;395;48.132;11.608;2022-12-28T16:51:46;9.10;1.00
827;DHT22;395;48.132;11.608;2022-12-28T16:54:17;9.00;1.00
827;DHT22;395;48.132;11.608;2022-12-28T16:56:44;9.00;1.00
827;DHT22;395;48.132;11.608;2022-12-28T16:59:16;8.90;1.00
827;DHT22;395;48.132;11.608;2022-12-28T17:01:42;8.90;1.00
827;DHT22;395;48.132;11.608;2022-12-28T17:04:09;8.90;1.00
827;DHT22;395;48.132;11.608;2022-12-28T17:06:35;8.90;1.00
827;DHT22;395;48.132;11.608;2022-12-28T17:09:02;8.90;1.00
827;DHT22;395;48.132;11.608;2022-12-28T17:11:28;8.90;1.00
827;DHT22;395;48.132;11.608;2022-12-28T17:14:05;8.80;1.00
827;DHT22;395;48.132;11.608;2022-12-28T17:16:31;8.80;1.00
827;DHT22;395;48.132;11.608;2022-12-28T17:18:58;8.80;1.00
827;DHT22;395;48.132;11.608;2022-12-28T17:21:25;8.80;1.00
827;DHT22;395;48.132;11.608;2022-12-28T17:23:51;8.70;1.00
827;DHT22;395;48.132;11.608;2022-12-28T17:26:16;8.70;1.00
827;DHT22;395;48.132;11.608;2022-12-28T17:28:42;8.70;1.00
827;DHT22;395;48.132;11.608;2022-12-28T17:31:14;8.70;1.00
827;DHT22;395;48.132;11.608;2022-12-28T17:33:52;8.60;1.00
827;DHT22;395;48.132;11.608;2022-12-28T17:36:22;8.60;1.00
827;DHT22;395;48.132;11.608;2022-12-28T17:38:48;8.60;1.00
827;DHT22;395;48.132;11.608;2022-12-28T17:41:16;8.60;1.00
827;DHT22;395;48.132;11.608;2022-12-28T17:43:51;8.60;1.00
827;DHT22;395;48.132;11.608;2022-12-28T17:46:17;8.60;1.00
827;DHT22;395;48.132;11.608;2022-12-28T17:48:43;8.70;1.00
827;DHT22;395;48.132;11.608;2022-12-28T17:51:09;8.60;1.00
827;DHT22;395;48.132;11.608;2022-12-28T17:53:35;8.50;1.00
827;DHT22;395;48.132;11.608;2022-12-28T17:56:02;8.50;1.00
827;DHT22;395;48.132;11.608;2022-12-28T17:58:28;8.50;1.00
827;DHT22;395;48.132;11.608;2022-12-28T18:00:54;8.50;1.00
827;DHT22;395;48.132;11.608;2022-12-28T18:03:20;8.50;1.00
827;DHT22;395;48.132;11.608;2022-12-28T18:05:47;8.50;1.00
827;DHT22;395;48.132;11.608;2022-12-28T18:08:14;8.50;1.00
827;DHT22;395;48.132;11.608;2022-12-28T18:10:39;8.50;1.00
827;DHT22;395;48.132;11.608;2022-12-28T18:13:05;8.50;1.00
827;DHT22;395;48.132;11.608;2022-12-28T18:15:34;8.40;1.00
827;DHT22;395;48.132;11.608;2022-12-28T18:18:00;8.40;1.00
827;DHT22;395;48.132;11.608;2022-12-28T18:20:26;8.40;1.00
827;DHT22;395;48.132;11.608;2022-12-28T18:22:52;8.40;1.00
827;DHT22;395;48.132;11.608;2022-12-28T18:25:17;8.30;1.00
827;DHT22;395;48.132;11.608;2022-12-28T18:27:43;8.30;1.00
827;DHT22;395;48.132;11.608;2022-12-28T18:30:09;8.30;1.00
827;DHT22;395;48.132;11.608;2022-12-28T18:32:35;8.30;1.00
827;DHT22;395;48.132;11.608;2022-12-28T18:35:01;8.30;1.00
827;DHT22;395;48.132;11.608;2022-12-28T18:37:27;8.30;1.00
827;DHT22;395;48.132;11.608;2022-12-28T18:39:52;8.30;1.00